Time;durP1;ratioP1;P1;durP2;ratioP2;P2;SDS_P1;SDS_P2;PMS_P1;PMS_P2;Temp;Humidity;BMP_temperature;BMP_pressure;BME280_temperature;BME280_humidity;BME280_pressure;Samples;Min_cycle;Max_cycle;Signal;HPM_P1;HPM_P2
2023/05/11 00:00:11;;;;;;;12.70;8.60;;;;;;;5.82;100.00;101681.52;109852;1241;72833;-72
2023/05/11 00:03:00;;;;;;;12.30;8.40;;;;;;;5.82;100.00;101683.23;109877;1238;71617;-72
2023/05/11 00:05:29;;;;;;;12.60;8.10;;;;;;;5.78;100.00;101682.20;109812;1240;74274;-72
2023/05/11 00:07:57;;;;;;;12.80;7.40;;;;;;;5.73;100.00;101687.56;109934;1238;63251;-71
2023/05/11 00:10:28;;;;;;;10.40;7.40;;;;;;;5.70;100.00;101678.51;110032;1240;57419;-72
2023/05/11 00:12:57;;;;;;;12.40;7.30;;;;;;;5.65;100.00;101679.92;109884;1239;62933;-73
2023/05/11 00:15:25;;;;;;;13.30;8.20;;;;;;;5.59;100.00;101680.80;109863;1240;71734;-71
2023/05/11 00:17:54;;;;;;;14.30;8.30;;;;;;;5.55;100.00;101680.77;109968;1239;60256;-73
2023/05/11 00:20:23;;;;;;;12.10;7.90;;;;;;;5.52;100.00;101681.23;109949;1241;63242;-72
2023/05/11 00:22:52;;;;;;;12.50;7.70;;;;;;;5.48;100.00;101681.73;109940;1241;61847;-73
2023/05/11 00:25:20;;;;;;;11.20;8.40;;;;;;;5.39;100.00;101683.08;109970;1239;61474;-73
2023/05/11 00:27:49;;;;;;;10.80;7.80;;;;;;;5.30;100.00;101683.73;109994;1241;63356;-72
2023/05/11 00:30:19;;;;;;;10.20;6.70;;;;;;;5.22;100.00;101684.18;109884;1241;72151;-73
2023/05/11 00:32:50;;;;;;;11.40;7.50;;;;;;;5.19;100.00;101683.45;109886;1240;70885;-73
2023/05/11 00:35:19;;;;;;;14.30;8.30;;;;;;;5.15;100.00;101679.77;109895;1243;74257;-73
2023/05/11 00:37:48;;;;;;;9.40;7.10;;;;;;;5.14;100.00;101681.73;109857;1242;62724;-74
2023/05/11 00:40:16;;;;;;;11.60;7.40;;;;;;;5.11;100.00;101676.46;109899;1238;61583;-74
2023/05/11 00:42:45;;;;;;;10.50;7.50;;;;;;;5.08;100.00;101677.24;109870;1238;73845;-73
2023/05/11 00:45:14;;;;;;;10.50;7.60;;;;;;;5.04;100.00;101678.06;109876;1242;61335;-73
2023/05/11 00:47:43;;;;;;;12.20;7.80;;;;;;;5.02;100.00;101674.87;109883;1242;60040;-73
2023/05/11 00:50:12;;;;;;;12.10;7.90;;;;;;;5.00;100.00;101678.55;109938;1239;73073;-73
2023/05/11 00:52:41;;;;;;;10.80;7.30;;;;;;;4.98;100.00;101680.02;109773;1242;63282;-72
2023/05/11 00:55:12;;;;;;;12.00;7.80;;;;;;;4.96;100.00;101683.89;109777;1244;57719;-73
2023/05/11 00:57:41;;;;;;;12.20;7.60;;;;;;;4.92;100.00;101682.80;109858;1241;62964;-72
2023/05/11 01:00:10;;;;;;;11.60;8.00;;;;;;;4.89;100.00;101678.92;109793;1239;72251;-73
2023/05/11 01:02:41;;;;;;;12.50;7.30;;;;;;;4.86;100.00;101679.17;109788;1243;59754;-73
2023/05/11 01:05:10;;;;;;;14.00;7.90;;;;;;;4.83;100.00;101682.41;109761;1240;73121;-73
2023/05/11 01:07:53;;;;;;;10.40;7.20;;;;;;;4.79;100.00;101683.91;109754;1238;57194;-72
2023/05/11 01:10:33;;;;;;;10.40;7.60;;;;;;;4.75;100.00;101685.25;109840;1241;61014;-73
2023/05/11 01:13:30;;;;;;;13.60;7.50;;;;;;;4.73;100.00;101681.70;109842;1239;62778;-73
2023/05/11 01:16:11;;;;;;;14.90;7.70;;;;;;;4.71;100.00;101682.63;109859;1242;72470;-73
2023/05/11 01:18:55;;;;;;;13.20;8.10;;;;;;;4.69;100.00;101678.36;109724;1244;59790;-73
2023/05/11 01:21:28;;;;;;;12.80;8.70;;;;;;;4.69;100.00;101678.02;109755;1238;73054;-73
2023/05/11 01:24:48;;;;;;;12.60;9.70;;;;;;;4.67;100.00;101678.46;109811;1242;62256;-73
2023/05/11 01:27:46;;;;;;;12.40;7.80;;;;;;;4.64;100.00;101677.33;110029;1241;57402;-72
2023/05/11 01:30:28;;;;;;;13.60;8.70;;;;;;;4.60;100.00;101679.37;109886;1241;62168;-72
2023/05/11 01:33:06;;;;;;;12.10;8.10;;;;;;;4.56;100.00;101678.98;109874;1242;60793;-73
2023/05/11 01:35:41;;;;;;;12.20;7.60;;;;;;;4.48;100.00;101676.09;109883;1242;58978;-72
2023/05/11 01:38:13;;;;;;;11.30;7.50;;;;;;;4.44;100.00;101676.77;109991;1241;63232;-70
2023/05/11 01:40:47;;;;;;;11.30;7.10;;;;;;;4.39;100.00;101676.91;109682;1244;57653;-70
2023/05/11 01:43:21;;;;;;;11.30;7.60;;;;;;;4.36;100.00;101675.10;109882;1238;61273;-70
2023/05/11 01:45:52;;;;;;;14.10;8.20;;;;;;;4.34;100.00;101673.98;109740;1243;64841;-71
2023/05/11 01:48:24;;;;;;;10.50;7.20;;;;;;;4.31;100.00;101675.11;109986;1241;60791;-70
2023/05/11 01:50:58;;;;;;;11.40;7.70;;;;;;;4.27;100.00;101672.29;109854;1241;68895;-70
2023/05/11 01:53:33;;;;;;;15.20;9.20;;;;;;;4.23;100.00;101674.66;109732;1241;74385;-70
2023/05/11 01:56:04;;;;;;;11.90;8.20;;;;;;;4.21;100.00;101673.67;109719;1238;57640;-73
2023/05/11 01:58:36;;;;;;;13.90;8.10;;;;;;;4.22;100.00;101675.21;109734;1241;60214;-72
2023/05/11 02:01:07;;;;;;;10.70;7.90;;;;;;;4.22;100.00;101676.56;109823;1239;64385;-74
2023/05/11 02:03:37;;;;;;;14.10;7.70;;;;;;;4.23;100.00;101679.30;109761;1241;61551;-73
2023/05/11 02:06:09;;;;;;;11.20;7.40;;;;;;;4.23;100.00;101679.30;109848;1241;58986;-73
2023/05/11 02:08:40;;;;;;;14.30;7.40;;;;;;;4.22;100.00;101679.84;109638;1238;73000;-73
2023/05/11 02:11:11;;;;;;;10.40;7.90;;;;;;;4.22;100.00;101681.06;109828;1243;61576;-73
2023/05/11 02:13:43;;;;;;;11.20;8.10;;;;;;;4.21;100.00;101684.02;109979;1240;61625;-73
2023/05/11 02:16:15;;;;;;;14.00;8.30;;;;;;;4.22;100.00;101688.81;109723;1239;63751;-74
2023/05/11 02:18:45;;;;;;;15.10;9.60;;;;;;;4.24;100.00;101689.44;109630;1238;71721;-73
2023/05/11 02:21:16;;;;;;;12.70;8.10;;;;;;;4.25;100.00;101689.58;109790;1238;59527;-73
2023/05/11 02:23:47;;;;;;;12.10;8.40;;;;;;;4.25;100.00;101689.76;109933;1238;74444;-73
2023/05/11 02:26:15;;;;;;;11.80;7.60;;;;;;;4.28;100.00;101689.48;110018;1239;62451;-73
2023/05/11 02:28:44;;;;;;;14.80;7.70;;;;;;;4.28;100.00;101690.37;109925;1241;57668;-73
2023/05/11 02:31:23;;;;;;;12.90;8.10;;;;;;;4.27;100.00;101692.64;110035;1238;62920;-74
2023/05/11 02:33:55;;;;;;;11.50;8.30;;;;;;;4.26;100.00;101691.64;109963;1238;71486;-74
2023/05/11 02:36:28;;;;;;;12.20;7.50;;;;;;;4.23;100.00;101692.39;110021;1238;59999;-73
2023/05/11 02:39:03;;;;;;;;;;;;;;;4.20;100.00;101694.42;109822;1238;63233;-73
2023/05/11 02:41:36;;;;;;;10.10;7.20;;;;;;;4.13;100.00;101697.20;109831;1241;61018;-72
2023/05/11 02:44:10;;;;;;;15.10;8.30;;;;;;;4.10;100.00;101698.48;109694;1238;57151;-72
2023/05/11 02:46:40;;;;;;;17.10;7.80;;;;;;;4.08;100.00;101697.87;109827;1237;72701;-72
2023/05/11 02:49:12;;;;;;;13.80;7.70;;;;;;;4.04;100.00;101700.05;109844;1238;71061;-73
2023/05/11 02:51:43;;;;;;;12.00;8.20;;;;;;;4.04;100.00;101703.16;109820;1238;70971;-73
2023/05/11 02:54:15;;;;;;;10.80;7.80;;;;;;;4.04;100.00;101707.80;109825;1238;62721;-73
2023/05/11 02:56:47;;;;;;;13.60;8.30;;;;;;;4.06;100.00;101708.42;109815;1242;61116;-72
2023/05/11 02:59:16;;;;;;;11.30;8.20;;;;;;;4.03;100.00;101709.22;109930;1238;57625;-71
2023/05/11 03:01:45;;;;;;;11.80;8.00;;;;;;;4.03;100.00;101706.48;109709;1238;62933;-71
2023/05/11 03:04:14;;;;;;;13.60;9.10;;;;;;;4.06;100.00;101707.42;109713;1238;61420;-72
2023/05/11 03:06:43;;;;;;;10.90;7.80;;;;;;;4.10;100.00;101711.43;109689;1238;60092;-72
2023/05/11 03:09:12;;;;;;;12.60;8.70;;;;;;;4.13;100.00;101713.05;109800;1238;73129;-73
2023/05/11 03:11:44;;;;;;;15.00;10.00;;;;;;;4.19;100.00;101713.73;109794;1239;62378;-73
2023/05/11 03:14:13;;;;;;;16.50;9.10;;;;;;;4.23;100.00;101715.34;109893;1238;57656;-73
2023/05/11 03:16:43;;;;;;;20.50;9.00;;;;;;;4.26;100.00;101715.94;110060;1237;73424;-73
2023/05/11 03:19:12;;;;;;;13.60;9.30;;;;;;;4.33;100.00;101723.50;109899;1238;72452;-72
2023/05/11 03:21:41;;;;;;;12.80;8.60;;;;;;;4.40;100.00;101723.80;109960;1237;70970;-73
2023/05/11 03:24:11;;;;;;;13.40;9.40;;;;;;;4.47;100.00;101729.10;109793;1238;74255;-74
2023/05/11 03:26:42;;;;;;;15.40;9.90;;;;;;;4.53;100.00;101731.52;109921;1238;57700;-74
2023/05/11 03:29:12;;;;;;;21.10;9.90;;;;;;;4.57;100.00;101730.52;109952;1238;57744;-74
2023/05/11 03:31:41;;;;;;;15.20;9.20;;;;;;;4.63;100.00;101731.73;110054;1238;73393;-74
2023/05/11 03:34:10;;;;;;;19.40;10.40;;;;;;;4.69;100.00;101733.25;109899;1238;72916;-74
2023/05/11 03:36:41;;;;;;;31.20;15.40;;;;;;;4.75;100.00;101735.13;109929;1238;70023;-74
2023/05/11 03:39:11;;;;;;;16.70;10.20;;;;;;;4.83;100.00;101735.40;109975;1238;63490;-73
2023/05/11 03:41:43;;;;;;;20.10;11.50;;;;;;;4.91;100.00;101733.42;109929;1241;57052;-71
2023/05/11 03:44:13;;;;;;;18.90;10.60;;;;;;;5.01;100.00;101735.15;109756;1238;57647;-75
2023/05/11 03:46:44;;;;;;;18.60;10.10;;;;;;;5.11;100.00;101736.20;109964;1238;62900;-73
2023/05/11 03:49:14;;;;;;;18.50;10.00;;;;;;;5.21;100.00;101733.79;109802;1238;61894;-72
2023/05/11 03:51:44;;;;;;;21.10;10.10;;;;;;;5.32;100.00;101737.05;109853;1238;59986;-71
2023/05/11 03:54:13;;;;;;;22.10;11.20;;;;;;;5.46;100.00;101738.44;109935;1238;74429;-75
2023/05/11 03:56:41;;;;;;;21.00;11.60;;;;;;;5.59;100.00;101735.78;109998;1238;62014;-72
2023/05/11 03:59:15;;;;;;;25.90;11.10;;;;;;;5.70;100.00;101736.26;109860;1238;57877;-72
2023/05/11 04:01:44;;;;;;;26.30;12.00;;;;;;;5.83;100.00;101741.64;109729;1242;73399;-72
2023/05/11 04:04:14;;;;;;;22.20;12.40;;;;;;;5.95;100.00;101744.84;109964;1238;61934;-71
2023/05/11 04:06:43;;;;;;;21.20;11.50;;;;;;;6.07;100.00;101745.45;109835;1238;59151;-76
2023/05/11 04:09:18;;;;;;;21.90;11.50;;;;;;;6.18;100.00;101744.00;110048;1238;63260;-84
2023/05/11 04:11:47;;;;;;;16.80;10.30;;;;;;;6.27;100.00;101746.62;109974;1241;57215;-73
2023/05/11 04:14:19;;;;;;;17.20;11.20;;;;;;;6.35;100.00;101746.13;109984;1238;61191;-73
2023/05/11 04:16:50;;;;;;;14.90;10.10;;;;;;;6.46;100.00;101747.62;109841;1238;73891;-73
2023/05/11 04:19:18;;;;;;;23.20;11.70;;;;;;;6.56;100.00;101750.67;110087;1238;71728;-73
2023/05/11 04:21:47;;;;;;;18.50;11.40;;;;;;;6.70;100.00;101751.18;110052;1238;59767;-73
2023/05/11 04:24:16;;;;;;;16.60;11.00;;;;;;;6.86;100.00;101751.39;109835;1240;63267;-75
2023/05/11 04:26:46;;;;;;;28.90;12.10;;;;;;;7.02;100.00;101755.60;109935;1241;61233;-74
2023/05/11 04:29:14;;;;;;;23.00;12.00;;;;;;;7.14;100.00;101756.68;109835;1238;61044;-75
2023/05/11 04:31:43;;;;;;;24.70;12.40;;;;;;;7.29;100.00;101760.38;109848;1237;62761;-77
2023/05/11 04:34:12;;;;;;;28.10;12.70;;;;;;;7.44;100.00;101762.53;109850;1238;61627;-78
2023/05/11 04:36:41;;;;;;;23.90;12.10;;;;;;;7.55;100.00;101758.40;109725;1238;70546;-75
2023/05/11 04:39:10;;;;;;;21.50;12.50;;;;;;;7.67;100.00;101760.81;109682;1238;74084;-75
2023/05/11 04:41:39;;;;;;;18.70;12.30;;;;;;;7.80;100.00;101763.55;109839;1240;57194;-75
2023/05/11 04:44:09;;;;;;;19.80;12.60;;;;;;;7.96;100.00;101765.81;109870;1238;60421;-75
2023/05/11 04:46:38;;;;;;;19.60;12.80;;;;;;;8.11;100.00;101766.51;109868;1238;74025;-76
2023/05/11 04:49:07;;;;;;;26.30;13.10;;;;;;;8.24;100.00;101767.29;109898;1238;61264;-74
2023/05/11 04:51:38;;;;;;;22.70;13.00;;;;;;;8.37;100.00;101762.03;109857;1238;59904;-75
2023/05/11 04:54:07;;;;;;;22.10;12.80;;;;;;;8.52;100.00;101760.66;109748;1237;72607;-76
2023/05/11 04:56:39;;;;;;;23.40;13.00;;;;;;;8.66;100.00;101763.98;109778;1240;63239;-74
2023/05/11 04:59:08;;;;;;;20.20;12.30;;;;;;;8.80;100.00;101764.88;109670;1242;57587;-74
2023/05/11 05:01:37;;;;;;;18.50;11.80;;;;;;;8.95;100.00;101764.36;109875;1238;62447;-85
2023/05/11 05:04:07;;;;;;;22.60;12.20;;;;;;;9.09;100.00;101764.69;109483;1238;455085;-74
2023/05/11 05:06:37;;;;;;;19.70;10.60;;;;;;;9.22;100.00;101763.16;110084;1238;59918;-75
2023/05/11 05:09:05;;;;;;;17.80;11.30;;;;;;;9.37;100.00;101763.98;109957;1238;73747;-75
2023/05/11 05:11:35;;;;;;;15.60;10.80;;;;;;;9.47;100.00;101761.05;110054;1238;61575;-74
2023/05/11 05:14:03;;;;;;;20.80;11.30;;;;;;;9.56;100.00;101758.50;110068;1238;57618;-75
2023/05/11 05:16:33;;;;;;;14.20;9.20;;;;;;;9.72;100.00;101759.05;109976;1238;72693;-75
2023/05/11 05:19:02;;;;;;;16.60;10.10;;;;;;;9.82;100.00;101760.79;110130;1238;62058;-75
2023/05/11 05:21:33;;;;;;;16.40;9.80;;;;;;;9.98;100.00;101758.20;110048;1238;70490;-75
2023/05/11 05:24:05;;;;;;;16.10;9.60;;;;;;;10.13;100.00;101760.89;110008;1238;74100;-75
2023/05/11 05:26:34;;;;;;;16.60;9.70;;;;;;;10.24;100.00;101763.63;110006;1241;57751;-76
2023/05/11 05:29:05;;;;;;;17.10;9.80;;;;;;;10.32;100.00;101766.11;110027;1238;57181;-75
2023/05/11 05:31:34;;;;;;;16.70;9.80;;;;;;;10.45;100.00;101766.66;110086;1238;72727;-75
2023/05/11 05:34:03;;;;;;;16.90;10.10;;;;;;;10.56;100.00;101761.35;109851;1238;61490;-75
2023/05/11 05:36:32;;;;;;;17.30;10.30;;;;;;;10.65;100.00;101761.34;109916;1242;60144;-75
2023/05/11 05:39:02;;;;;;;22.40;10.60;;;;;;;10.79;100.00;101767.72;109973;1238;73980;-75
2023/05/11 05:41:31;;;;;;;24.00;15.10;;;;;;;10.92;100.00;101769.45;109912;1241;63277;-75
2023/05/11 05:44:01;;;;;;;19.00;11.10;;;;;;;11.03;100.00;101767.77;109983;1238;57131;-75
2023/05/11 05:46:30;;;;;;;24.00;11.10;;;;;;;11.15;100.00;101766.86;109831;1238;62075;-76
2023/05/11 05:48:59;;;;;;;18.70;9.10;;;;;;;11.37;100.00;101773.58;109949;1237;71591;-76
2023/05/11 05:51:28;;;;;;;13.00;8.60;;;;;;;11.49;100.00;101772.56;109838;1237;60424;-74
2023/05/11 05:53:57;;;;;;;12.80;8.40;;;;;;;11.62;100.00;101776.30;109986;1238;63995;-74
2023/05/11 05:56:26;;;;;;;11.80;7.80;;;;;;;11.67;100.00;101771.98;109944;1241;57537;-75
2023/05/11 05:58:55;;;;;;;9.90;8.10;;;;;;;11.74;100.00;101771.60;110093;1238;57135;-75
2023/05/11 06:01:24;;;;;;;14.00;7.20;;;;;;;11.86;100.00;101771.73;110025;1238;62455;-74
2023/05/11 06:03:53;;;;;;;11.30;7.60;;;;;;;11.96;100.00;101776.08;110014;1238;72115;-73
2023/05/11 06:06:22;;;;;;;17.80;8.20;;;;;;;12.07;100.00;101774.65;109905;1237;59870;-74
2023/05/11 06:08:51;;;;;;;8.30;6.50;;;;;;;12.07;100.00;101771.55;110060;1238;73391;-74
2023/05/11 06:11:20;;;;;;;12.90;8.00;;;;;;;12.15;100.00;101775.77;109937;1238;61972;-75
2023/05/11 06:13:49;;;;;;;8.70;6.40;;;;;;;12.26;100.00;101776.63;109993;1238;57714;-74
2023/05/11 06:16:18;;;;;;;8.70;6.60;;;;;;;12.36;100.00;101778.24;110066;1241;63031;-74
2023/05/11 06:18:47;;;;;;;12.20;7.10;;;;;;;12.43;100.00;101775.34;109967;1239;61198;-75
2023/05/11 06:21:16;;;;;;;10.30;7.30;;;;;;;12.50;100.00;101777.38;109982;1241;60312;-75
2023/05/11 06:23:45;;;;;;;11.10;7.20;;;;;;;12.59;100.00;101779.06;110043;1238;73935;-74
2023/05/11 06:26:13;;;;;;;13.00;7.10;;;;;;;12.60;100.00;101779.05;109946;1239;60257;-73
2023/05/11 06:28:42;;;;;;;15.40;7.20;;;;;;;12.70;100.00;101782.37;109862;1241;57294;-74
2023/05/11 06:31:14;;;;;;;9.70;6.70;;;;;;;12.85;99.85;101783.69;110051;1237;73445;-75
2023/05/11 06:33:43;;;;;;;10.00;6.30;;;;;;;12.99;99.85;101782.23;109973;1241;60999;-75
2023/05/11 06:36:19;;;;;;;13.60;6.80;;;;;;;13.09;99.97;101784.04;110015;1238;60019;-71
2023/05/11 06:38:48;;;;;;;12.50;6.20;;;;;;;13.11;99.88;101782.17;109828;1242;63708;-76
2023/05/11 06:41:17;;;;;;;11.20;6.50;;;;;;;13.22;99.87;101778.66;109969;1237;61578;-76
2023/05/11 06:43:45;;;;;;;10.30;6.50;;;;;;;13.33;99.62;101778.45;109817;1238;61564;-75
2023/05/11 06:46:25;;;;;;;9.90;6.10;;;;;;;13.52;98.77;101776.14;109990;1239;62601;-75
2023/05/11 06:48:54;;;;;;;12.80;6.30;;;;;;;13.71;98.52;101776.08;110017;1241;60839;-76
2023/05/11 06:51:23;;;;;;;14.00;6.00;;;;;;;13.66;93.86;101774.83;110021;1239;70411;-75
2023/05/11 06:53:51;;;;;;;9.10;5.90;;;;;;;13.79;93.99;101778.27;109884;1238;74816;-75
2023/05/11 06:56:21;;;;;;;9.80;6.00;;;;;;;13.87;89.96;101775.29;109997;1241;58068;-74
2023/05/11 06:58:49;;;;;;;8.30;5.70;;;;;;;13.95;89.64;101766.70;109890;1238;60194;-75
2023/05/11 07:01:18;;;;;;;10.00;6.50;;;;;;;14.02;88.13;101773.55;109872;1241;63038;-76
2023/05/11 07:03:47;;;;;;;10.60;6.30;;;;;;;13.94;88.64;101774.27;109990;1238;61494;-76
2023/05/11 07:06:16;;;;;;;7.30;5.20;;;;;;;14.10;83.95;101772.10;109973;1239;59081;-75
2023/05/11 07:08:45;;;;;;;6.60;4.30;;;;;;;14.15;79.31;101774.40;109987;1239;63306;-76
2023/05/11 07:11:14;;;;;;;6.80;4.60;;;;;;;14.16;71.00;101773.80;109872;1241;61242;-75
2023/05/11 07:13:44;;;;;;;9.20;5.10;;;;;;;14.32;66.57;101771.41;109856;1238;60178;-75
2023/05/11 07:16:12;;;;;;;6.70;4.40;;;;;;;14.28;64.86;101772.19;109935;1238;72558;-74
2023/05/11 07:18:41;;;;;;;6.70;4.40;;;;;;;14.29;64.40;101769.86;109832;1241;61257;-75
2023/05/11 07:21:10;;;;;;;6.90;4.50;;;;;;;14.46;64.62;101769.71;109947;1239;59993;-75
2023/05/11 07:23:39;;;;;;;10.00;5.10;;;;;;;14.64;64.09;101770.23;109807;1238;73049;-74
2023/05/11 07:26:08;;;;;;;11.20;4.60;;;;;;;14.84;64.21;101771.71;109896;1239;60841;-75
2023/05/11 07:28:37;;;;;;;6.60;3.90;;;;;;;15.06;62.24;101772.00;110024;1238;61717;-78
2023/05/11 07:31:05;;;;;;;6.70;4.60;;;;;;;15.25;61.80;101768.33;110067;1239;64901;-75
2023/05/11 07:33:38;;;;;;;4.60;3.30;;;;;;;15.23;59.86;101766.01;110095;1238;72211;-75
2023/05/11 07:36:07;;;;;;;7.70;4.20;;;;;;;15.25;58.59;101764.42;109966;1238;70540;-75
2023/05/11 07:38:36;;;;;;;6.00;3.60;;;;;;;15.41;59.75;101771.31;109964;1241;62668;-74
2023/05/11 07:41:06;;;;;;;6.10;3.70;;;;;;;15.53;58.24;101765.69;109834;1242;57651;-75
2023/05/11 07:43:38;;;;;;;;;;;;;;;15.72;57.71;101764.95;109789;1238;57599;-74
2023/05/11 07:46:07;;;;;;;6.20;3.80;;;;;;;15.65;55.96;101767.24;109969;1238;72590;-73
2023/05/11 07:48:36;;;;;;;5.70;3.90;;;;;;;15.70;56.69;101764.73;110050;1238;72552;-74
2023/05/11 07:51:06;;;;;;;6.50;3.70;;;;;;;15.60;56.35;101761.08;110025;1238;71147;-75
2023/05/11 07:53:35;;;;;;;4.60;3.20;;;;;;;15.54;56.29;101762.27;110022;1238;74119;-74
2023/05/11 07:56:04;;;;;;;6.40;3.90;;;;;;;15.48;56.74;101761.64;109921;1241;61008;-74
2023/05/11 07:58:33;;;;;;;6.50;3.40;;;;;;;15.34;56.71;101762.16;109805;1242;57763;-74
2023/05/11 08:01:03;;;;;;;5.00;3.20;;;;;;;15.43;57.65;101760.95;110040;1238;62933;-76
2023/05/11 08:03:32;;;;;;;6.80;3.90;;;;;;;15.30;56.22;101758.60;109906;1238;72152;-76
2023/05/11 08:06:01;;;;;;;11.80;3.60;;;;;;;15.39;56.55;101754.98;109856;1238;71087;-74
2023/05/11 08:08:29;;;;;;;9.80;5.40;;;;;;;15.45;56.20;101756.24;109877;1238;74138;-72
2023/05/11 08:11:00;;;;;;;6.10;3.70;;;;;;;15.52;55.46;101754.34;109829;1241;57188;-74
2023/05/11 08:13:29;;;;;;;7.10;3.70;;;;;;;15.59;55.30;101755.04;109898;1238;57481;-74
2023/05/11 08:15:58;;;;;;;6.60;3.60;;;;;;;15.62;54.36;101756.72;109864;1238;73464;-73
2023/05/11 08:18:26;;;;;;;9.50;3.60;;;;;;;15.77;53.80;101756.14;109585;1238;73221;-73
2023/05/11 08:20:55;;;;;;;10.70;4.20;;;;;;;15.84;53.33;101757.48;109877;1238;70361;-74
2023/05/11 08:23:24;;;;;;;7.90;3.50;;;;;;;15.93;52.66;101758.16;109845;1240;63731;-74
2023/05/11 08:25:54;;;;;;;5.90;3.60;;;;;;;16.01;52.14;101762.86;109930;1239;57056;-73
2023/05/11 08:28:23;;;;;;;6.90;3.40;;;;;;;15.83;51.89;101757.90;109826;1243;57248;-73
2023/05/11 08:30:56;;;;;;;9.90;3.90;;;;;;;16.08;51.62;101760.13;110049;1238;72123;-73
2023/05/11 08:33:26;;;;;;;11.20;3.30;;;;;;;16.18;51.02;101758.67;109852;1242;62101;-74
2023/05/11 08:35:58;;;;;;;7.90;3.60;;;;;;;16.37;50.75;101761.90;110001;1238;70516;-74
2023/05/11 08:38:27;;;;;;;7.50;3.70;;;;;;;16.59;49.90;101757.28;109932;1238;74371;-75
2023/05/11 08:40:55;;;;;;;8.50;3.20;;;;;;;16.53;48.87;101755.90;110055;1241;60841;-73
2023/05/11 08:43:26;;;;;;;5.30;3.10;;;;;;;16.56;48.88;101757.02;110097;1240;57811;-73
2023/05/11 08:46:01;;;;;;;9.70;3.50;;;;;;;16.61;49.06;101756.46;110094;1237;62083;-74
2023/05/11 08:48:31;;;;;;;6.90;3.60;;;;;;;16.68;50.38;101761.15;110077;1240;63222;-74
2023/05/11 08:51:03;;;;;;;5.10;3.00;;;;;;;16.36;50.00;101761.86;109855;1237;71653;-74
2023/05/11 08:53:32;;;;;;;4.50;3.00;;;;;;;16.21;50.97;101764.61;109953;1240;63588;-74
2023/05/11 08:56:05;;;;;;;6.10;3.30;;;;;;;16.13;51.17;101761.66;110035;1241;60416;-74
2023/05/11 08:58:36;;;;;;;4.40;3.10;;;;;;;16.31;51.39;101761.30;109939;1238;57140;-73
2023/05/11 09:01:06;;;;;;;7.70;3.20;;;;;;;16.24;51.11;101759.61;109818;1238;74008;-74
2023/05/11 09:03:35;;;;;;;9.40;4.00;;;;;;;16.18;51.32;101755.48;109976;1240;72626;-74
2023/05/11 09:06:06;;;;;;;8.30;3.00;;;;;;;16.19;50.92;101751.91;110061;1240;70274;-74
2023/05/11 09:08:36;;;;;;;6.90;3.60;;;;;;;15.87;49.64;101752.00;109839;1237;63729;-74
2023/05/11 09:11:06;;;;;;;8.40;3.40;;;;;;;15.62;50.14;101745.49;109967;1241;57182;-74
2023/05/11 09:13:34;;;;;;;6.50;3.50;;;;;;;15.79;50.60;101748.71;109995;1238;61117;-73
2023/05/11 09:16:03;;;;;;;5.70;3.30;;;;;;;15.87;50.26;101752.54;110020;1238;63504;-74
2023/05/11 09:18:50;;;;;;;7.10;3.70;;;;;;;15.59;49.59;101749.55;110065;1237;71420;-74
2023/05/11 09:21:19;;;;;;;6.00;2.90;;;;;;;15.69;50.09;101752.66;109993;1238;70329;-72
2023/05/11 09:23:49;;;;;;;6.00;3.40;;;;;;;15.80;50.42;101752.00;109850;1238;63762;-72
2023/05/11 09:26:28;;;;;;;7.80;3.50;;;;;;;15.77;51.18;101749.74;109737;1243;57139;-72
2023/05/11 09:28:59;;;;;;;5.90;3.10;;;;;;;15.96;51.63;101751.61;109842;1238;57807;-72
2023/05/11 09:31:43;;;;;;;9.50;3.80;;;;;;;16.17;51.23;101753.48;109808;1238;62244;-72
2023/05/11 09:34:20;;;;;;;7.20;3.70;;;;;;;15.96;51.33;101750.28;109966;1238;72155;-72
2023/05/11 09:36:52;;;;;;;7.50;3.90;;;;;;;16.00;51.15;101749.01;110079;1237;61106;-72
2023/05/11 09:39:35;;;;;;;7.20;3.90;;;;;;;15.99;51.73;101747.17;109984;1238;72055;-73
2023/05/11 09:42:24;;;;;;;9.00;3.60;;;;;;;16.18;52.34;101747.06;109986;1241;57680;-73
2023/05/11 09:44:53;;;;;;;7.30;3.40;;;;;;;16.34;51.49;101737.36;109998;1238;60244;-72
2023/05/11 09:47:22;;;;;;;10.20;3.70;;;;;;;16.36;51.11;101737.21;110042;1237;75024;-72
2023/05/11 09:49:50;;;;;;;8.00;3.00;;;;;;;16.24;50.62;101741.88;109863;1238;72489;-72
2023/05/11 09:52:19;;;;;;;5.90;2.80;;;;;;;16.10;50.48;101741.02;109977;1238;59648;-72
2023/05/11 09:54:51;;;;;;;8.20;3.40;;;;;;;16.16;50.21;101738.83;109989;1240;64871;-72
2023/05/11 09:57:31;;;;;;;10.60;3.80;;;;;;;16.17;50.26;101738.35;109795;1242;57719;-72
2023/05/11 09:59:59;;;;;;;8.70;3.10;;;;;;;16.28;50.51;101735.74;110001;1238;61201;-73
2023/05/11 10:02:30;;;;;;;5.90;3.50;;;;;;;16.76;49.24;101730.63;109928;1238;62900;-73
2023/05/11 10:05:09;;;;;;;6.70;3.50;;;;;;;16.74;49.75;101727.97;109907;1238;72202;-73
2023/05/11 10:07:38;;;;;;;5.10;3.10;;;;;;;17.02;49.24;101723.30;109806;1238;71397;-71
2023/05/11 10:10:09;;;;;;;6.00;3.40;;;;;;;17.01;48.78;101720.44;109843;1239;74907;-72
2023/05/11 10:12:39;;;;;;;5.50;2.80;;;;;;;17.14;47.66;101715.45;109908;1241;60864;-71
2023/05/11 10:15:09;;;;;;;9.50;3.20;;;;;;;17.43;46.60;101713.74;110050;1237;61389;-72
2023/05/11 10:17:39;;;;;;;6.00;3.40;;;;;;;17.15;46.28;101713.12;110020;1238;72132;-74
2023/05/11 10:20:09;;;;;;;5.70;3.00;;;;;;;17.03;46.26;101712.20;110059;1238;63787;-73
2023/05/11 10:22:38;;;;;;;6.00;3.10;;;;;;;16.85;46.34;101712.85;110079;1238;59280;-73
2023/05/11 10:25:08;;;;;;;5.00;2.90;;;;;;;16.85;45.96;101710.86;109805;1242;62468;-73
2023/05/11 10:27:37;;;;;;;7.90;2.90;;;;;;;17.28;45.08;101712.52;110058;1239;57694;-72
2023/05/11 10:30:09;;;;;;;6.70;3.20;;;;;;;16.95;44.76;101711.08;109929;1241;60069;-74
2023/05/11 10:32:38;;;;;;;4.70;3.00;;;;;;;17.29;44.71;101706.80;109946;1238;74087;-73
2023/05/11 10:35:08;;;;;;;6.70;3.30;;;;;;;17.56;44.08;101709.40;109804;1238;62015;-74
2023/05/11 10:37:37;;;;;;;5.50;3.20;;;;;;;17.50;45.40;101712.27;109978;1238;59276;-73
2023/05/11 10:40:07;;;;;;;6.60;4.50;;;;;;;17.49;46.68;101712.02;109918;1238;62335;-75
2023/05/11 10:43:11;;;;;;;4.80;2.90;;;;;;;17.46;46.70;101709.63;109945;1241;57588;-71
2023/05/11 10:45:55;;;;;;;8.90;3.20;;;;;;;17.31;46.62;101709.70;109957;1239;60359;-72
2023/05/11 10:48:53;;;;;;;5.40;2.70;;;;;;;17.11;47.46;101712.40;109850;1238;73949;-74
2023/05/11 10:51:53;;;;;;;8.20;3.30;;;;;;;17.01;47.63;101716.36;109559;1238;61872;-74
2023/05/11 10:54:31;;;;;;;8.00;4.30;;;;;;;16.75;49.13;101718.50;109661;1238;59238;-70
2023/05/11 10:57:36;;;;;;;12.80;10.10;;;;;;;16.75;50.79;101715.04;109860;1238;62346;-70
2023/05/11 11:00:29;;;;;;;8.50;3.40;;;;;;;16.74;50.90;101715.80;109753;1238;57787;-72
2023/05/11 11:03:09;;;;;;;5.80;5.10;;;;;;;16.44;51.23;101717.54;109854;1238;57729;-74
2023/05/11 11:05:38;;;;;;;7.10;3.30;;;;;;;16.55;50.98;101716.45;109746;1238;72819;-69
2023/05/11 11:08:08;;;;;;;7.00;3.70;;;;;;;16.67;50.25;101717.61;109860;1238;72696;-74
2023/05/11 11:10:45;;;;;;;5.70;3.10;;;;;;;16.60;50.69;101712.77;109765;1238;71761;-72
2023/05/11 11:13:18;;;;;;;5.80;3.30;;;;;;;16.77;49.61;101708.25;109614;1242;62797;-74
2023/05/11 11:15:53;;;;;;;5.10;3.20;;;;;;;16.78;49.20;101709.89;109559;1241;57696;-73
2023/05/11 11:18:27;;;;;;;7.50;2.70;;;;;;;16.68;49.12;101709.66;109829;1238;57896;-73
2023/05/11 11:20:57;;;;;;;5.10;2.80;;;;;;;16.65;48.50;101711.98;109767;1238;63017;-77
2023/05/11 11:23:39;;;;;;;9.80;6.90;;;;;;;16.92;47.88;101711.67;109645;1238;61412;-72
2023/05/11 11:26:10;;;;;;;6.90;2.80;;;;;;;16.90;47.02;101710.09;109885;1238;70563;-70
2023/05/11 11:28:56;;;;;;;6.00;3.00;;;;;;;16.93;47.01;101709.65;109946;1238;74376;-71